Time;durP1;ratioP1;P1;durP2;ratioP2;P2;SDS_P1;SDS_P2;PMS_P1;PMS_P2;Temp;Humidity;BMP_temperature;BMP_pressure;BME280_temperature;BME280_humidity;BME280_pressure;Samples;Min_cycle;Max_cycle;Signal;HPM_P1;HPM_P2
2022/06/18 00:02:18;;;;;;;4.57;3.60;;;18.00;99.90;;;;;;5035005;28;20215;-49
2022/06/18 00:04:46;;;;;;;3.97;3.67;;;17.90;99.90;;;;;;5026945;28;20203;-46
2022/06/18 00:07:17;;;;;;;4.90;3.43;;;17.90;99.90;;;;;;5041229;28;20237;-46
2022/06/18 00:09:56;;;;;;;6.90;3.30;;;17.90;99.90;;;;;;5045478;28;20545;-49
2022/06/18 00:15:14;;;;;;;4.00;3.60;;;17.90;99.90;;;;;;5041134;28;20257;-46
2022/06/18 00:17:44;;;;;;;3.80;3.43;;;17.80;99.90;;;;;;5045367;28;20199;-46
2022/06/18 00:20:13;;;;;;;3.33;3.00;;;17.80;99.90;;;;;;5026853;28;20995;-48
2022/06/18 00:22:42;;;;;;;3.47;3.23;;;17.80;99.90;;;;;;5044768;28;20203;-47
2022/06/18 00:25:17;;;;;;;3.43;3.13;;;17.80;99.90;;;;;;5041526;28;20257;-46
2022/06/18 00:27:44;;;;;;;3.87;2.97;;;17.80;99.90;;;;;;5032735;28;20209;-48
2022/06/18 00:30:13;;;;;;;3.67;3.33;;;17.80;99.90;;;;;;5040835;28;20202;-46
2022/06/18 00:32:41;;;;;;;4.40;3.00;;;17.80;99.90;;;;;;5043655;28;20294;-46
2022/06/18 00:35:10;;;;;;;3.50;3.23;;;17.80;99.90;;;;;;5024043;28;20574;-48
2022/06/18 00:37:38;;;;;;;3.20;3.00;;;17.80;99.90;;;;;;5044668;28;20195;-45
2022/06/18 00:40:15;;;;;;;4.57;3.50;;;17.80;99.90;;;;;;5040881;28;20207;-49
2022/06/18 00:42:43;;;;;;;3.73;3.43;;;17.80;99.90;;;;;;5037894;28;20218;-48
2022/06/18 00:45:14;;;;;;;3.80;3.43;;;17.70;99.90;;;;;;5040763;28;20256;-46
2022/06/18 00:47:52;;;;;;;3.27;2.80;;;17.70;99.90;;;;;;5044737;28;20683;-47
2022/06/18 00:50:24;;;;;;;4.77;3.33;;;17.70;99.90;;;;;;5026954;28;20943;-45
2022/06/18 00:52:55;;;;;;;3.60;3.30;;;17.70;99.90;;;;;;5043193;28;20286;-47
2022/06/18 00:55:30;;;;;;;4.00;3.67;;;17.60;99.90;;;;;;5040330;28;20229;-46
2022/06/18 00:58:01;;;;;;;5.07;3.60;;;17.60;99.90;;;;;;5024158;28;20273;-48
2022/06/18 01:00:35;;;;;;;5.23;3.03;;;17.60;99.90;;;;;;5037008;28;20226;-45
2022/06/18 01:03:04;;;;;;;3.60;3.30;;;17.60;99.90;;;;;;5040628;28;20200;-46
2022/06/18 01:05:35;;;;;;;7.70;3.37;;;17.60;99.90;;;;;;5027864;28;20211;-46
2022/06/18 01:08:16;;;;;;;3.20;3.00;;;17.60;99.90;;;;;;5040558;28;20202;-46
2022/06/18 01:10:48;;;;;;;4.17;3.17;;;17.50;99.90;;;;;;5044206;28;20284;-45
2022/06/18 01:13:19;;;;;;;3.30;3.00;;;17.50;99.90;;;;;;5031255;28;21437;-45
2022/06/18 01:15:48;;;;;;;3.17;2.70;;;17.60;99.90;;;;;;5023279;28;20232;-45
2022/06/18 01:18:17;;;;;;;5.40;3.60;;;17.50;99.90;;;;;;5019470;28;20258;-45
2022/06/18 01:20:48;;;;;;;2.77;2.60;;;17.50;99.90;;;;;;5043267;28;20294;-45
2022/06/18 01:23:22;;;;;;;3.20;2.97;;;17.50;99.90;;;;;;5023891;28;20200;-46
2022/06/18 01:25:52;;;;;;;4.37;3.30;;;17.50;99.90;;;;;;5036803;28;20199;-46
2022/06/18 01:28:20;;;;;;;4.33;3.10;;;17.50;99.90;;;;;;5032173;28;20222;-50
2022/06/18 01:30:47;;;;;;;3.17;2.97;;;17.50;99.90;;;;;;5042356;28;20211;-46
2022/06/18 01:33:18;;;;;;;4.03;3.30;;;17.40;99.90;;;;;;5033712;28;20200;-45
2022/06/18 01:35:51;;;;;;;3.17;2.80;;;17.50;99.90;;;;;;5036975;28;20223;-45
2022/06/18 01:38:24;;;;;;;3.37;3.07;;;17.40;99.90;;;;;;5024486;28;20203;-45
2022/06/18 01:40:57;;;;;;;5.77;2.90;;;17.40;99.90;;;;;;5042343;28;20242;-46
2022/06/18 01:43:25;;;;;;;3.10;2.90;;;17.40;99.90;;;;;;5040939;28;20277;-45
2022/06/18 01:45:57;;;;;;;3.43;3.13;;;17.40;99.90;;;;;;5035072;28;20294;-49
2022/06/18 01:48:27;;;;;;;3.17;2.93;;;17.30;99.90;;;;;;5039781;28;20293;-48
2022/06/18 01:50:59;;;;;;;3.50;3.20;;;17.30;99.90;;;;;;5041579;28;20310;-45
2022/06/18 01:53:30;;;;;;;3.10;2.90;;;17.30;99.90;;;;;;5024811;28;20214;-46
2022/06/18 01:56:03;;;;;;;3.50;3.20;;;17.20;99.90;;;;;;5040156;28;20212;-46
2022/06/18 01:58:39;;;;;;;4.73;2.80;;;17.20;99.90;;;;;;5040360;28;20199;-45
2022/06/18 02:01:19;;;;;;;3.47;3.13;;;17.20;99.90;;;;;;5031319;28;20310;-48
2022/06/18 02:03:47;;;;;;;3.27;2.90;;;17.20;99.90;;;;;;5041035;28;20203;-46
2022/06/18 02:06:14;;;;;;;3.50;3.30;;;17.10;99.90;;;;;;5038879;28;20188;-49
2022/06/18 02:08:41;;;;;;;3.50;3.17;;;17.10;99.90;;;;;;5042033;28;20194;-47
2022/06/18 02:11:13;;;;;;;2.93;2.73;;;17.10;99.90;;;;;;5023713;28;20235;-48
2022/06/18 02:13:44;;;;;;;5.63;3.20;;;17.00;99.90;;;;;;5042918;28;20219;-48
2022/06/18 02:16:16;;;;;;;3.60;3.30;;;17.00;99.90;;;;;;5031913;28;20215;-47
2022/06/18 02:18:45;;;;;;;3.50;3.20;;;17.00;99.90;;;;;;5043225;28;20211;-45
2022/06/18 02:21:14;;;;;;;3.17;2.97;;;17.00;99.90;;;;;;5038984;28;20215;-45
2022/06/18 02:23:41;;;;;;;3.47;3.20;;;16.90;99.90;;;;;;5041697;28;20246;-45
2022/06/18 02:26:10;;;;;;;3.37;3.10;;;16.90;99.90;;;;;;5025418;28;20203;-51
2022/06/18 02:28:41;;;;;;;3.00;2.80;;;16.90;99.90;;;;;;5041713;28;20209;-47
2022/06/18 02:31:16;;;;;;;4.07;3.47;;;16.90;99.90;;;;;;5038144;28;20216;-47
2022/06/18 02:33:48;;;;;;;4.23;3.00;;;16.80;99.90;;;;;;5022600;28;20215;-46
2022/06/18 02:36:17;;;;;;;3.67;3.10;;;16.80;99.90;;;;;;5033219;28;20219;-45
2022/06/18 02:38:54;;;;;;;4.60;3.20;;;16.80;99.90;;;;;;5043128;28;20194;-45
2022/06/18 02:41:22;;;;;;;3.60;3.30;;;16.80;99.90;;;;;;5029242;28;20211;-45
2022/06/18 02:43:50;;;;;;;3.70;3.07;;;16.80;99.90;;;;;;5043375;28;20668;-45
2022/06/18 02:46:20;;;;;;;4.03;3.60;;;16.80;99.90;;;;;;5043307;28;20394;-45
2022/06/18 02:48:47;;;;;;;5.07;3.17;;;16.70;99.90;;;;;;5039802;28;20199;-47
2022/06/18 02:51:14;;;;;;;3.63;3.10;;;16.70;99.90;;;;;;5042819;28;20750;-46
2022/06/18 02:53:42;;;;;;;4.07;2.80;;;16.70;99.90;;;;;;5046644;28;20195;-45
2022/06/18 02:56:13;;;;;;;3.80;3.40;;;16.70;99.90;;;;;;5027672;28;20691;-50
2022/06/18 02:58:44;;;;;;;3.13;2.80;;;16.70;99.90;;;;;;5045310;28;20195;-46
2022/06/18 03:01:14;;;;;;;4.93;3.37;;;16.70;99.90;;;;;;5041300;28;20227;-49
2022/06/18 03:03:47;;;;;;;5.67;3.60;;;16.70;99.90;;;;;;5036594;28;20211;-46
2022/06/18 03:06:15;;;;;;;3.57;3.00;;;16.70;99.90;;;;;;5041860;28;20199;-47
2022/06/18 03:08:46;;;;;;;3.37;3.00;;;16.70;99.90;;;;;;5044941;28;20298;-47
2022/06/18 03:14:02;;;;;;;3.20;3.00;;;16.70;99.90;;;;;;5042976;28;20234;-46
2022/06/18 03:16:30;;;;;;;3.67;2.80;;;16.70;99.90;;;;;;5043819;28;20309;-47
2022/06/18 03:18:59;;;;;;;3.40;3.20;;;16.70;99.90;;;;;;5037274;28;20204;-47
2022/06/18 03:21:33;;;;;;;3.03;2.80;;;16.70;99.90;;;;;;5042928;28;20219;-47
2022/06/18 03:24:01;;;;;;;4.50;3.30;;;16.70;99.90;;;;;;5042783;28;20214;-48
2022/06/18 03:26:30;;;;;;;3.63;2.90;;;16.70;99.90;;;;;;5028647;28;20912;-48
2022/06/18 03:28:59;;;;;;;3.23;3.03;;;16.70;99.90;;;;;;5043423;28;20206;-50
2022/06/18 03:31:29;;;;;;;3.13;2.80;;;16.70;99.90;;;;;;5042783;28;20207;-47
2022/06/18 03:33:56;;;;;;;3.13;2.87;;;16.70;99.90;;;;;;5041374;28;20346;-47
2022/06/18 03:36:24;;;;;;;2.83;2.63;;;16.60;99.90;;;;;;5037161;28;20211;-44
2022/06/18 03:38:51;;;;;;;5.20;3.50;;;16.70;99.90;;;;;;5044727;28;20203;-46
2022/06/18 03:41:19;;;;;;;3.20;3.00;;;16.70;99.90;;;;;;5027967;28;20226;-45
2022/06/18 03:43:46;;;;;;;2.93;2.73;;;16.60;99.90;;;;;;5042580;28;20202;-44
2022/06/18 03:46:17;;;;;;;3.73;3.03;;;16.70;99.90;;;;;;5040676;28;20195;-44
2022/06/18 03:48:49;;;;;;;3.73;3.37;;;16.70;99.90;;;;;;5044589;28;20345;-46
2022/06/18 03:51:19;;;;;;;3.13;2.93;;;16.70;99.90;;;;;;5033897;28;20235;-47
2022/06/18 03:53:47;;;;;;;3.50;3.17;;;16.70;99.90;;;;;;5044134;28;20679;-44
2022/06/18 03:56:16;;;;;;;3.33;3.10;;;16.60;99.90;;;;;;5025691;28;20292;-45
2022/06/18 03:58:45;;;;;;;3.23;2.97;;;16.50;99.90;;;;;;5045631;28;20237;-45
2022/06/18 04:01:16;;;;;;;3.20;2.80;;;16.50;99.90;;;;;;5040178;28;20310;-46
2022/06/18 04:03:46;;;;;;;3.37;3.07;;;16.50;99.90;;;;;;5043830;28;20195;-45
2022/06/18 04:06:24;;;;;;;3.17;2.90;;;16.50;99.90;;;;;;5036781;28;20203;-47
2022/06/18 04:08:52;;;;;;;3.20;3.00;;;16.50;99.90;;;;;;5044032;28;20636;-47
2022/06/18 04:11:21;;;;;;;3.80;3.50;;;16.60;99.90;;;;;;5027825;28;20938;-48
2022/06/18 04:13:48;;;;;;;2.90;2.70;;;16.60;99.90;;;;;;5043607;28;20286;-46
2022/06/18 04:16:34;;;;;;;3.60;3.30;;;16.60;99.90;;;;;;5044690;28;20277;-47
2022/06/18 04:19:11;;;;;;;3.23;3.03;;;16.60;99.90;;;;;;5040142;28;20203;-50
2022/06/18 04:21:39;;;;;;;4.03;3.27;;;16.60;99.90;;;;;;5024932;28;20228;-44
2022/06/18 04:24:06;;;;;;;3.13;2.83;;;16.70;99.90;;;;;;5021058;28;20690;-47
2022/06/18 04:26:36;;;;;;;3.40;3.20;;;16.80;99.90;;;;;;5040427;28;20204;-48
2022/06/18 04:29:03;;;;;;;4.47;3.30;;;16.90;99.90;;;;;;5025395;28;20208;-45
2022/06/18 04:31:30;;;;;;;3.40;3.13;;;16.90;99.90;;;;;;5042210;28;20391;-45
2022/06/18 04:33:58;;;;;;;3.20;2.90;;;16.90;99.90;;;;;;5036673;28;20585;-45
2022/06/18 04:36:36;;;;;;;4.33;2.97;;;17.00;99.90;;;;;;5034323;28;20634;-45
2022/06/18 04:39:14;;;;;;;3.40;3.10;;;17.00;99.90;;;;;;5039398;28;20203;-44
2022/06/18 04:41:57;;;;;;;3.10;2.90;;;17.10;99.90;;;;;;5039324;28;20312;-46
2022/06/18 04:44:26;;;;;;;3.17;2.87;;;17.20;99.90;;;;;;5029318;28;20466;-45
2022/06/18 04:47:01;;;;;;;3.37;2.90;;;17.40;99.90;;;;;;5041345;28;20203;-48
2022/06/18 04:49:29;;;;;;;4.93;3.00;;;17.50;99.90;;;;;;5041762;28;20227;-44
2022/06/18 04:51:58;;;;;;;3.33;2.70;;;17.60;99.90;;;;;;5034865;28;20230;-46
2022/06/18 04:54:36;;;;;;;2.63;2.53;;;17.70;99.90;;;;;;5042658;28;20222;-46
2022/06/18 04:57:04;;;;;;;2.80;2.60;;;17.70;99.90;;;;;;5040921;28;20726;-47
2022/06/18 04:59:31;;;;;;;4.67;3.00;;;17.90;99.90;;;;;;5027651;28;20204;-46
2022/06/18 05:02:00;;;;;;;3.50;2.43;;;17.90;99.90;;;;;;5041408;28;20250;-45
2022/06/18 05:04:45;;;;;;;3.73;2.40;;;18.10;99.90;;;;;;5043923;28;20218;-45
2022/06/18 05:07:40;;;;;;;2.80;2.47;;;18.30;99.90;;;;;;5034527;28;20211;-44
2022/06/18 05:10:36;;;;;;;3.20;2.70;;;18.40;99.90;;;;;;5042949;28;20405;-45
2022/06/18 05:13:07;;;;;;;4.30;2.20;;;18.50;99.90;;;;;;5028336;28;20691;-47
2022/06/18 05:15:46;;;;;;;3.73;2.73;;;18.60;99.90;;;;;;5042400;28;20696;-45
2022/06/18 05:18:16;;;;;;;3.20;3.00;;;18.80;99.90;;;;;;5038704;28;20333;-45
2022/06/18 05:20:49;;;;;;;4.27;2.70;;;19.00;99.90;;;;;;5023383;28;20231;-45
2022/06/18 05:23:17;;;;;;;7.50;2.40;;;19.20;99.90;;;;;;5031293;28;20205;-46
2022/06/18 05:25:46;;;;;;;3.33;2.77;;;19.40;99.90;;;;;;5042889;28;20200;-45
2022/06/18 05:28:14;;;;;;;2.37;2.17;;;19.50;99.90;;;;;;5038609;28;20204;-44
2022/06/18 05:30:42;;;;;;;3.70;2.30;;;19.60;99.90;;;;;;5029611;28;20223;-45
2022/06/18 05:33:10;;;;;;;2.70;2.30;;;19.80;99.90;;;;;;5035337;28;20204;-47
2022/06/18 05:35:43;;;;;;;2.90;2.70;;;19.90;99.90;;;;;;5041907;28;20215;-45
2022/06/18 05:38:15;;;;;;;4.27;2.60;;;20.00;99.90;;;;;;5024734;28;20758;-49
2022/06/18 05:40:43;;;;;;;7.03;2.83;;;20.00;99.90;;;;;;5042646;28;20590;-48
2022/06/18 05:43:11;;;;;;;4.47;2.60;;;20.20;99.90;;;;;;5038343;28;20207;-48
2022/06/18 05:45:39;;;;;;;3.73;2.40;;;20.40;99.90;;;;;;5028150;28;20579;-48
2022/06/18 05:48:06;;;;;;;2.60;2.40;;;20.50;99.90;;;;;;5039376;28;20191;-48
2022/06/18 05:50:33;;;;;;;3.07;2.40;;;20.50;99.90;;;;;;5043079;28;20244;-45
2022/06/18 05:53:00;;;;;;;5.10;3.20;;;20.60;99.90;;;;;;5029035;28;20219;-47
2022/06/18 05:55:48;;;;;;;3.13;2.53;;;20.70;99.90;;;;;;5043520;28;20367;-45
2022/06/18 05:58:47;;;;;;;3.70;2.80;;;20.80;99.90;;;;;;5038433;28;20698;-44
2022/06/18 06:01:22;;;;;;;3.67;2.93;;;20.90;99.90;;;;;;5024859;28;20237;-45
2022/06/18 06:03:49;;;;;;;2.90;2.70;;;20.90;99.90;;;;;;5041450;28;20664;-45
2022/06/18 06:06:16;;;;;;;4.27;3.40;;;20.90;99.90;;;;;;5037341;28;20963;-50
2022/06/18 06:08:46;;;;;;;3.43;3.13;;;21.00;99.90;;;;;;5035026;28;20664;-44
2022/06/18 06:11:29;;;;;;;3.50;3.20;;;21.00;99.90;;;;;;5039274;28;20958;-45
2022/06/18 06:13:59;;;;;;;3.87;3.50;;;21.10;99.90;;;;;;5020876;28;20211;-47
2022/06/18 06:16:27;;;;;;;4.13;3.73;;;21.10;99.90;;;;;;5035138;28;20219;-48
2022/06/18 06:18:59;;;;;;;5.20;3.57;;;21.00;99.90;;;;;;5022878;28;20207;-45
2022/06/18 06:21:26;;;;;;;3.87;3.57;;;21.10;99.90;;;;;;5041037;28;20226;-48
2022/06/18 06:23:53;;;;;;;4.10;3.63;;;21.10;99.90;;;;;;5034928;28;20203;-47
2022/06/18 06:26:24;;;;;;;4.53;3.60;;;21.20;99.90;;;;;;5040304;28;20191;-45
2022/06/18 06:28:52;;;;;;;4.80;3.70;;;21.20;99.90;;;;;;5043229;28;20226;-45
2022/06/18 06:31:19;;;;;;;4.50;4.10;;;21.30;99.90;;;;;;5039539;28;20207;-45
2022/06/18 06:33:46;;;;;;;6.03;3.70;;;21.30;99.90;;;;;;5028193;28;20215;-44
2022/06/18 06:36:13;;;;;;;5.20;3.87;;;21.40;99.90;;;;;;5038708;28;20268;-46
2022/06/18 06:38:40;;;;;;;4.37;3.97;;;21.40;99.90;;;;;;5031561;28;20264;-49
2022/06/18 06:41:14;;;;;;;4.40;4.00;;;21.40;99.90;;;;;;5039456;28;20223;-45
2022/06/18 06:43:43;;;;;;;4.50;4.10;;;21.50;99.90;;;;;;5042683;28;20291;-46
2022/06/18 06:46:12;;;;;;;6.10;3.67;;;21.50;99.90;;;;;;5039144;28;20209;-47
2022/06/18 06:48:39;;;;;;;4.43;3.67;;;21.60;99.90;;;;;;5028899;28;20257;-47
2022/06/18 06:51:11;;;;;;;5.30;4.80;;;21.60;99.90;;;;;;5039729;28;20276;-45
2022/06/18 06:53:39;;;;;;;5.00;3.53;;;21.70;99.90;;;;;;5034641;28;20279;-45
2022/06/18 06:58:55;;;;;;;4.43;3.57;;;21.80;99.90;;;;;;5038540;28;20241;-45
2022/06/18 07:01:22;;;;;;;5.17;4.60;;;21.80;99.90;;;;;;5042825;28;20250;-45
2022/06/18 07:03:49;;;;;;;4.53;4.17;;;21.90;99.90;;;;;;5026655;28;20200;-46
2022/06/18 07:06:16;;;;;;;6.20;4.80;;;21.90;99.90;;;;;;5037631;28;20203;-45
2022/06/18 07:08:44;;;;;;;5.67;5.10;;;22.00;99.90;;;;;;5038105;28;20211;-45
2022/06/18 07:11:11;;;;;;;6.63;3.60;;;22.10;99.90;;;;;;5037192;28;20215;-48
2022/06/18 07:13:39;;;;;;;5.10;4.70;;;22.10;99.90;;;;;;5041859;28;20199;-45
2022/06/18 07:16:07;;;;;;;7.93;5.77;;;22.10;99.90;;;;;;5039626;28;20345;-44
2022/06/18 07:18:36;;;;;;;5.30;4.43;;;22.20;99.90;;;;;;5042576;28;20211;-49
2022/06/18 07:21:06;;;;;;;6.00;5.40;;;22.10;99.90;;;;;;5026940;28;20250;-49
2022/06/18 07:23:34;;;;;;;7.70;5.03;;;22.20;99.90;;;;;;5040645;28;20208;-49
2022/06/18 07:26:01;;;;;;;5.97;4.20;;;22.20;99.90;;;;;;5023075;28;20278;-45
2022/06/18 07:28:28;;;;;;;5.50;4.97;;;22.30;99.90;;;;;;5042730;28;20667;-50
2022/06/18 07:30:56;;;;;;;4.73;4.23;;;22.40;99.90;;;;;;5039310;28;20219;-50
2022/06/18 07:33:26;;;;;;;4.90;4.37;;;22.40;99.90;;;;;;5045633;28;20231;-50
2022/06/18 07:35:53;;;;;;;5.37;4.87;;;22.40;99.90;;;;;;5021626;28;20664;-50
2022/06/18 07:38:20;;;;;;;7.63;5.57;;;22.40;99.90;;;;;;5045630;28;20199;-45
2022/06/18 07:40:50;;;;;;;5.80;5.20;;;22.50;99.90;;;;;;5030348;28;20223;-50
2022/06/18 07:43:20;;;;;;;8.30;5.45;;;22.50;99.90;;;;;;5039181;28;20203;-48
2022/06/18 07:45:48;;;;;;;8.67;5.07;;;22.50;99.90;;;;;;5043754;28;20249;-46
2022/06/18 07:48:15;;;;;;;9.43;5.07;;;22.60;99.90;;;;;;5044840;28;20195;-49
2022/06/18 07:50:46;;;;;;;6.67;5.03;;;22.70;99.90;;;;;;5029378;28;20306;-47
2022/06/18 07:53:16;;;;;;;7.23;5.07;;;22.80;99.90;;;;;;5043367;28;20202;-48
2022/06/18 07:55:43;;;;;;;8.83;5.70;;;22.80;99.90;;;;;;5041407;28;20671;-49
2022/06/18 07:58:10;;;;;;;6.47;5.88;;;22.80;99.90;;;;;;5039981;28;20268;-46
2022/06/18 08:00:39;;;;;;;6.82;6.10;;;22.90;99.90;;;;;;5044860;28;20277;-46
2022/06/18 08:03:06;;;;;;;6.07;5.30;;;22.90;99.90;;;;;;5040668;28;20196;-48
2022/06/18 08:05:33;;;;;;;6.35;4.90;;;22.90;99.90;;;;;;5031000;28;20209;-49
2022/06/18 08:08:01;;;;;;;8.75;5.68;;;23.00;99.90;;;;;;5041158;28;20241;-50
2022/06/18 08:10:28;;;;;;;6.53;6.00;;;23.10;99.90;;;;;;5045692;28;20575;-47
2022/06/18 08:12:55;;;;;;;8.20;4.80;;;23.10;99.90;;;;;;5033477;28;20655;-47
2022/06/18 08:15:22;;;;;;;6.93;4.70;;;23.20;99.90;;;;;;5045324;28;20202;-45
2022/06/18 08:17:49;;;;;;;5.78;5.13;;;23.30;99.90;;;;;;5042542;28;20234;-48
2022/06/18 08:20:17;;;;;;;8.65;6.07;;;23.30;99.90;;;;;;5028923;28;20216;-46
2022/06/18 08:22:47;;;;;;;7.60;5.00;;;23.40;99.90;;;;;;5043388;28;20862;-45
2022/06/18 08:25:19;;;;;;;9.75;6.32;;;23.50;99.90;;;;;;5043734;28;20199;-48
2022/06/18 08:27:47;;;;;;;11.00;5.70;;;23.60;99.90;;;;;;5031905;28;20207;-46
2022/06/18 08:30:14;;;;;;;8.52;6.07;;;23.60;99.90;;;;;;5043658;28;20955;-45
2022/06/18 08:32:41;;;;;;;7.30;6.60;;;23.60;99.90;;;;;;5044067;28;20199;-50
2022/06/18 08:35:09;;;;;;;9.07;6.50;;;23.60;99.90;;;;;;5041658;28;20296;-45
2022/06/18 08:37:36;;;;;;;9.10;5.65;;;23.60;99.90;;;;;;5030285;28;20242;-49
2022/06/18 08:40:34;;;;;;;11.82;5.25;;;23.70;99.90;;;;;;5041166;28;20278;-46
2022/06/18 08:43:07;;;;;;;7.55;5.57;;;23.80;99.90;;;;;;5033733;28;20208;-48
2022/06/18 08:45:41;;;;;;;10.73;5.40;;;23.90;99.90;;;;;;5039210;28;20540;-51
2022/06/18 08:48:40;;;;;;;6.80;5.22;;;23.90;99.90;;;;;;5042128;28;20183;-47
2022/06/18 08:51:20;;;;;;;10.93;6.50;;;24.00;99.90;;;;;;5041823;28;20211;-52
2022/06/18 08:54:06;;;;;;;7.68;6.07;;;24.10;99.90;;;;;;5025951;28;20215;-47
2022/06/18 08:56:39;;;;;;;10.32;6.32;;;24.10;99.90;;;;;;5044503;28;20230;-47
2022/06/18 08:59:15;;;;;;;7.80;6.57;;;24.20;99.90;;;;;;5029334;28;20206;-50
2022/06/18 09:01:47;;;;;;;7.90;6.22;;;24.10;99.90;;;;;;5043209;28;20223;-48
2022/06/18 09:04:23;;;;;;;9.18;5.50;;;24.20;99.90;;;;;;5042440;28;20198;-50
2022/06/18 09:07:14;;;;;;;7.38;6.60;;;24.20;99.90;;;;;;5035514;28;20215;-46
2022/06/18 09:09:49;;;;;;;8.18;6.60;;;24.30;99.90;;;;;;5028706;28;20290;-50
2022/06/18 09:12:20;;;;;;;8.90;6.03;;;24.20;99.90;;;;;;5043393;28;20284;-50
2022/06/18 09:14:56;;;;;;;9.10;6.15;;;24.10;99.90;;;;;;5031741;28;20203;-46
2022/06/18 09:17:29;;;;;;;7.03;5.90;;;24.10;99.90;;;;;;5037953;28;20866;-46
2022/06/18 09:19:59;;;;;;;7.15;5.05;;;24.10;99.90;;;;;;5034641;28;20202;-46
2022/06/18 09:22:27;;;;;;;6.18;5.53;;;24.10;99.90;;;;;;5043953;28;20315;-45
2022/06/18 09:25:02;;;;;;;6.55;5.68;;;24.20;99.90;;;;;;5025307;28;20214;-48
2022/06/18 09:27:36;;;;;;;10.30;5.65;;;24.30;99.90;;;;;;5043839;28;20241;-50
2022/06/18 09:30:09;;;;;;;9.75;5.47;;;24.20;99.80;;;;;;5033515;28;20194;-50
2022/06/18 09:32:42;;;;;;;6.25;4.47;;;24.10;99.20;;;;;;5043842;28;20199;-48
2022/06/18 09:35:15;;;;;;;10.07;4.65;;;24.10;99.20;;;;;;5039011;28;20191;-47
2022/06/18 09:37:48;;;;;;;8.65;4.38;;;24.20;98.60;;;;;;5041996;28;20318;-50
2022/06/18 09:40:23;;;;;;;8.60;4.93;;;24.20;98.30;;;;;;5028401;28;20207;-48
2022/06/18 09:42:54;;;;;;;8.77;4.95;;;24.20;97.80;;;;;;5034879;28;20611;-48
2022/06/18 09:45:28;;;;;;;6.88;4.25;;;24.20;98.00;;;;;;5036450;28;20207;-47
2022/06/18 09:47:55;;;;;;;6.97;5.10;;;24.30;97.80;;;;;;5039700;28;20198;-50
2022/06/18 09:50:28;;;;;;;10.88;5.10;;;24.20;98.40;;;;;;5043875;28;20618;-45
2022/06/18 09:53:01;;;;;;;9.25;5.20;;;24.10;98.20;;;;;;5039345;28;20203;-47
2022/06/18 09:55:37;;;;;;;8.73;5.30;;;24.10;98.50;;;;;;5028813;28;20218;-45
2022/06/18 09:58:08;;;;;;;9.45;5.20;;;24.00;99.30;;;;;;5039966;28;20276;-45
2022/06/18 10:00:37;;;;;;;5.03;3.42;;;24.20;99.30;;;;;;5043527;28;20233;-47
2022/06/18 10:03:11;;;;;;;8.90;4.57;;;24.20;99.40;;;;;;5030757;28;20228;-45
2022/06/18 10:08:32;;;;;;;6.07;4.40;;;24.10;98.40;;;;;;5040127;28;20202;-47
2022/06/18 10:11:08;;;;;;;7.10;4.65;;;24.00;98.80;;;;;;5025408;28;20219;-45
2022/06/18 10:13:43;;;;;;;7.32;4.18;;;24.00;99.20;;;;;;5042878;28;20191;-45
2022/06/18 10:16:17;;;;;;;9.95;4.43;;;24.00;99.60;;;;;;5034144;28;20218;-47
2022/06/18 10:18:51;;;;;;;6.22;3.85;;;24.00;99.70;;;;;;5041257;28;20218;-47
2022/06/18 10:21:25;;;;;;;3.97;3.63;;;24.10;99.90;;;;;;5036856;28;20222;-47
2022/06/18 10:24:03;;;;;;;6.95;3.53;;;24.20;99.90;;;;;;5039796;28;20675;-49
2022/06/18 10:26:38;;;;;;;6.93;3.55;;;24.20;99.60;;;;;;5029308;28;20668;-45
2022/06/18 10:29:15;;;;;;;3.50;2.80;;;24.10;99.90;;;;;;5039782;28;20209;-45
2022/06/18 10:31:57;;;;;;;4.93;2.50;;;24.20;99.50;;;;;;5039720;28;20695;-47
2022/06/18 10:34:41;;;;;;;4.43;2.70;;;24.30;99.20;;;;;;5036311;28;20206;-45
2022/06/18 10:37:19;;;;;;;5.63;2.90;;;24.30;99.60;;;;;;5040029;28;20222;-46
2022/06/18 10:39:58;;;;;;;5.43;2.85;;;24.30;99.20;;;;;;5041071;28;20202;-49
2022/06/18 10:42:39;;;;;;;4.35;2.75;;;24.40;98.90;;;;;;5028781;28;20222;-47
2022/06/18 10:45:19;;;;;;;5.60;3.05;;;24.30;98.90;;;;;;5034539;28;20199;-45
2022/06/18 10:47:51;;;;;;;3.20;2.10;;;24.20;99.00;;;;;;5029878;28;20211;-48
2022/06/18 10:50:20;;;;;;;3.83;2.53;;;24.10;98.60;;;;;;5042583;28;20203;-47
2022/06/18 10:52:58;;;;;;;4.35;2.20;;;24.00;99.00;;;;;;5040579;28;20199;-45
2022/06/18 10:55:25;;;;;;;5.60;3.17;;;24.00;99.30;;;;;;5042952;28;20209;-45
2022/06/18 10:57:52;;;;;;;5.60;2.33;;;23.90;99.60;;;;;;5025478;28;20211;-47
2022/06/18 11:00:23;;;;;;;2.95;2.60;;;24.00;99.90;;;;;;5042299;28;20230;-46
2022/06/18 11:02:53;;;;;;;3.47;2.17;;;24.10;99.90;;;;;;5031022;28;20261;-45
2022/06/18 11:05:26;;;;;;;3.30;1.80;;;24.20;99.90;;;;;;5042019;28;20344;-45
2022/06/18 11:07:54;;;;;;;5.38;1.90;;;24.30;99.40;;;;;;5036582;28;20199;-47
2022/06/18 11:10:37;;;;;;;3.95;1.88;;;24.20;99.30;;;;;;5039984;28;20257;-46
2022/06/18 11:13:07;;;;;;;3.00;2.03;;;24.20;98.90;;;;;;5021625;28;20278;-45
2022/06/18 11:15:36;;;;;;;7.32;2.53;;;24.10;99.20;;;;;;5044910;28;20203;-45
2022/06/18 11:18:16;;;;;;;2.90;1.98;;;24.10;99.30;;;;;;5034706;28;20227;-48
2022/06/18 11:20:59;;;;;;;3.65;1.38;;;24.10;99.60;;;;;;5042803;28;20249;-46
2022/06/18 11:23:26;;;;;;;4.03;1.58;;;24.30;99.00;;;;;;5046140;28;20199;-45
2022/06/18 11:25:58;;;;;;;3.00;1.73;;;24.30;98.50;;;;;;5042478;28;20238;-45
2022/06/18 11:28:29;;;;;;;1.75;1.30;;;24.40;98.30;;;;;;5025843;28;20283;-48
2022/06/18 11:30:57;;;;;;;4.05;1.75;;;24.20;98.50;;;;;;5042095;28;20219;-46
2022/06/18 11:33:31;;;;;;;3.75;1.40;;;24.10;99.00;;;;;;5035810;28;20611;-45
2022/06/18 11:36:06;;;;;;;2.40;1.48;;;24.10;99.30;;;;;;5041590;28;20195;-45
2022/06/18 11:38:35;;;;;;;1.85;1.00;;;24.20;99.60;;;;;;5045927;28;20229;-44
2022/06/18 11:41:10;;;;;;;1.15;0.80;;;24.30;99.10;;;;;;5042286;28;20840;-45
2022/06/18 11:43:48;;;;;;;3.47;0.93;;;24.20;99.10;;;;;;5030896;28;20194;-46
2022/06/18 11:46:20;;;;;;;1.20;0.70;;;24.20;99.30;;;;;;5044624;28;20191;-50
2022/06/18 11:48:55;;;;;;;2.65;0.70;;;24.30;98.90;;;;;;5035931;28;20265;-46
2022/06/18 11:51:27;;;;;;;0.63;0.63;;;24.20;98.50;;;;;;5045951;28;20563;-46
2022/06/18 11:54:02;;;;;;;2.17;0.60;;;24.20;98.70;;;;;;5041574;28;20200;-47
2022/06/18 11:56:40;;;;;;;1.92;0.55;;;24.30;98.80;;;;;;5045880;28;20195;-46
2022/06/18 11:59:15;;;;;;;1.10;0.50;;;24.40;99.10;;;;;;5029165;28;20219;-47
2022/06/18 12:01:48;;;;;;;0.38;0.38;;;24.40;98.10;;;;;;5044116;28;20313;-46
2022/06/18 12:04:25;;;;;;;1.45;0.47;;;24.30;98.20;;;;;;5034875;28;21907;-46
2022/06/18 12:06:56;;;;;;;1.40;0.50;;;24.40;97.90;;;;;;5035403;28;20202;-45
2022/06/18 12:09:24;;;;;;;0.98;0.68;;;24.50;97.90;;;;;;5039638;28;20199;-45
2022/06/18 12:12:32;;;;;;;0.88;0.50;;;24.50;97.90;;;;;;5042124;28;20315;-44
2022/06/18 12:15:05;;;;;;;0.60;0.45;;;24.60;98.00;;;;;;5025235;28;20849;-48
2022/06/18 12:17:40;;;;;;;2.72;0.80;;;24.80;97.70;;;;;;5043003;28;20196;-49
2022/06/18 12:20:32;;;;;;;0.73;0.40;;;24.70;97.90;;;;;;5029885;28;20203;-44
2022/06/18 12:23:06;;;;;;;0.82;0.60;;;24.50;97.60;;;;;;5041385;28;20195;-50
2022/06/18 12:25:41;;;;;;;1.00;0.30;;;24.50;97.50;;;;;;5045005;28;20734;-48
2022/06/18 12:28:17;;;;;;;1.00;0.40;;;24.40;97.20;;;;;;5042731;28;20249;-48
2022/06/18 12:30:50;;;;;;;1.25;0.80;;;24.40;96.90;;;;;;5028994;28;20305;-46
2022/06/18 12:33:26;;;;;;;0.85;0.80;;;24.40;96.90;;;;;;5040508;28;20211;-47
2022/06/18 12:36:02;;;;;;;1.58;0.50;;;24.40;97.80;;;;;;5031098;28;20652;-48
2022/06/18 12:38:36;;;;;;;2.72;0.77;;;24.60;96.70;;;;;;5044973;28;20223;-47
2022/06/18 12:41:11;;;;;;;2.03;0.57;;;24.60;97.20;;;;;;5041072;28;20207;-46
2022/06/18 12:43:46;;;;;;;1.05;0.80;;;24.80;97.50;;;;;;5041795;28;20195;-47
2022/06/18 12:46:20;;;;;;;0.90;0.70;;;24.90;97.20;;;;;;5037447;28;20190;-50
2022/06/18 12:48:57;;;;;;;1.40;1.05;;;25.00;96.80;;;;;;5037210;28;20204;-48
2022/06/18 12:51:32;;;;;;;1.02;0.60;;;24.90;95.10;;;;;;5034987;28;20642;-50
2022/06/18 12:54:23;;;;;;;1.17;0.70;;;24.90;96.40;;;;;;5040408;28;20190;-45
2022/06/18 12:56:58;;;;;;;1.20;0.57;;;25.20;94.70;;;;;;5041766;28;20516;-45
2022/06/18 12:59:36;;;;;;;0.85;0.45;;;25.30;94.60;;;;;;5039345;28;20219;-44
2022/06/18 13:02:08;;;;;;;1.55;0.47;;;25.60;93.30;;;;;;5028636;28;20312;-47
2022/06/18 13:04:51;;;;;;;0.68;0.50;;;26.00;93.20;;;;;;5038575;28;20235;-46
2022/06/18 13:07:26;;;;;;;0.70;0.50;;;26.10;92.30;;;;;;5036414;28;20675;-45
2022/06/18 13:10:03;;;;;;;0.60;0.55;;;26.00;93.20;;;;;;5041108;28;20278;-47
2022/06/18 13:12:47;;;;;;;0.98;0.40;;;25.90;92.50;;;;;;5038921;28;20199;-44
2022/06/18 13:15:28;;;;;;;1.35;0.68;;;25.80;91.70;;;;;;5042588;28;20191;-44
2022/06/18 13:18:02;;;;;;;1.50;0.50;;;25.90;92.10;;;;;;5025483;28;20223;-45
2022/06/18 13:20:36;;;;;;;0.47;0.40;;;26.10;91.40;;;;;;5044160;28;20692;-46
2022/06/18 13:28:10;;;;;;;0.75;0.75;;;26.30;91.40;;;;;;5025070;28;20203;-48